createdAt,value
2017-11-27T00:01:55.795Z,2.85
2017-11-27T00:04:24.238Z,2.75
2017-11-27T00:06:52.565Z,2.79
2017-11-27T00:09:20.128Z,2.75
2017-11-27T00:11:47.582Z,2.75
2017-11-27T00:14:15.412Z,2.82
2017-11-27T00:16:42.928Z,2.87
2017-11-27T00:19:10.405Z,2.88
2017-11-27T00:21:37.923Z,2.83
2017-11-27T00:24:05.643Z,2.88
2017-11-27T00:26:33.650Z,2.91
2017-11-27T00:29:01.098Z,2.83
2017-11-27T00:31:28.564Z,2.86
2017-11-27T00:33:56.137Z,2.87
2017-11-27T00:36:23.618Z,2.82
2017-11-27T00:38:51.078Z,2.85
2017-11-27T00:41:18.524Z,2.92
2017-11-27T00:43:45.991Z,2.90
2017-11-27T00:46:13.489Z,2.95
2017-11-27T00:48:40.938Z,2.91
2017-11-27T00:51:08.414Z,2.87
2017-11-27T00:53:35.873Z,2.92
2017-11-27T00:56:03.362Z,2.88
2017-11-27T00:58:30.826Z,2.84
2017-11-27T01:00:58.361Z,2.94
2017-11-27T01:03:25.825Z,2.99
2017-11-27T01:05:53.304Z,2.99
2017-11-27T01:08:20.888Z,2.96
2017-11-27T01:10:48.482Z,2.87
2017-11-27T01:13:15.956Z,2.75
2017-11-27T01:15:43.398Z,2.83
2017-11-27T01:18:11.009Z,2.85
2017-11-27T01:20:38.461Z,3.00
2017-11-27T01:23:05.929Z,2.95
2017-11-27T01:25:33.384Z,3.01
2017-11-27T01:28:00.844Z,2.96
2017-11-27T01:30:28.649Z,2.91
2017-11-27T01:32:56.137Z,2.96
2017-11-27T01:35:23.592Z,2.89
2017-11-27T01:37:51.134Z,3.03
2017-11-27T01:40:18.553Z,3.12
2017-11-27T01:42:47.809Z,3.15
2017-11-27T01:45:16.441Z,3.10
2017-11-27T01:47:43.955Z,2.97
2017-11-27T01:50:11.440Z,2.94
2017-11-27T01:52:39.345Z,3.09
2017-11-27T01:55:06.825Z,3.15
2017-11-27T01:57:34.331Z,2.95
2017-11-27T02:00:01.789Z,3.14
2017-11-27T02:02:29.234Z,3.09
2017-11-27T02:04:56.738Z,3.09
2017-11-27T02:07:24.184Z,3.02
2017-11-27T02:09:51.645Z,3.01
2017-11-27T02:12:19.138Z,3.03
2017-11-27T02:14:46.597Z,3.06
2017-11-27T02:17:14.040Z,3.07
2017-11-27T02:19:41.514Z,3.08
2017-11-27T02:22:08.973Z,3.14
2017-11-27T02:24:36.469Z,3.10
2017-11-27T02:27:03.945Z,3.11
2017-11-27T02:29:31.392Z,3.10
2017-11-27T02:31:58.858Z,3.15
2017-11-27T02:34:26.346Z,3.10
2017-11-27T02:36:55.780Z,2.98
2017-11-27T02:39:23.254Z,3.00
2017-11-27T02:41:50.709Z,3.03
2017-11-27T02:44:18.266Z,2.95
2017-11-27T02:46:45.804Z,2.92
2017-11-27T02:49:13.276Z,2.89
2017-11-27T02:51:40.717Z,2.89
2017-11-27T02:54:08.184Z,2.88
2017-11-27T02:56:37.318Z,2.91
2017-11-27T02:59:04.782Z,2.96
2017-11-27T03:01:32.334Z,2.99
2017-11-27T03:03:59.819Z,2.96
2017-11-27T03:06:27.509Z,2.99
2017-11-27T03:08:54.985Z,2.95
2017-11-27T03:11:22.451Z,2.94
2017-11-27T03:13:49.937Z,3.01
2017-11-27T03:16:17.372Z,2.97
2017-11-27T03:18:44.864Z,3.03
2017-11-27T03:21:12.335Z,3.18
2017-11-27T03:23:39.806Z,3.06
2017-11-27T03:26:07.286Z,3.19
2017-11-27T03:28:35.567Z,3.15
2017-11-27T03:31:03.135Z,3.14
2017-11-27T03:33:30.595Z,3.15
2017-11-27T03:35:58.071Z,3.19
2017-11-27T03:38:25.504Z,3.18
2017-11-27T03:40:52.965Z,3.19
2017-11-27T03:43:20.415Z,3.13
2017-11-27T03:45:47.973Z,3.06
2017-11-27T03:48:15.437Z,3.16
2017-11-27T03:50:42.895Z,3.20
2017-11-27T03:53:10.339Z,3.15
2017-11-27T03:55:37.828Z,3.09
2017-11-27T03:58:05.291Z,3.11
2017-11-27T04:00:35.650Z,3.09
2017-11-27T04:03:03.128Z,3.08
2017-11-27T04:05:30.611Z,3.09
2017-11-27T04:07:58.093Z,3.06
2017-11-27T04:10:25.580Z,3.12
2017-11-27T04:12:53.045Z,3.10
2017-11-27T04:15:20.500Z,3.10
2017-11-27T04:17:48.142Z,3.06
2017-11-27T04:20:15.873Z,3.08
2017-11-27T04:22:43.340Z,3.05
2017-11-27T04:25:10.825Z,3.21
2017-11-27T04:27:38.275Z,3.13
2017-11-27T04:30:05.820Z,3.11
2017-11-27T04:32:33.948Z,3.07
2017-11-27T04:35:01.441Z,3.10
2017-11-27T04:37:28.918Z,3.11
2017-11-27T04:39:56.372Z,3.06
2017-11-27T04:42:23.848Z,3.06
2017-11-27T04:44:51.302Z,3.12
2017-11-27T04:47:18.769Z,3.15
2017-11-27T04:49:46.240Z,3.17
2017-11-27T04:52:13.805Z,3.22
2017-11-27T04:54:41.256Z,3.19
2017-11-27T04:57:08.712Z,3.31
2017-11-27T04:59:36.191Z,3.26
2017-11-27T05:02:03.632Z,3.27
2017-11-27T05:04:31.475Z,3.32
2017-11-27T05:06:59.035Z,3.28
2017-11-27T05:09:26.505Z,3.26
2017-11-27T05:11:53.958Z,3.28
2017-11-27T05:14:21.433Z,3.27
2017-11-27T05:16:48.929Z,3.31
2017-11-27T05:19:16.424Z,3.33
2017-11-27T05:21:43.872Z,3.33
2017-11-27T05:24:11.325Z,3.29
2017-11-27T05:26:39.109Z,3.41
2017-11-27T05:29:06.600Z,3.39
2017-11-27T05:31:34.052Z,3.52
2017-11-27T05:34:01.505Z,3.55
2017-11-27T05:36:29.049Z,3.49
2017-11-27T05:38:56.504Z,3.60
2017-11-27T05:41:23.969Z,3.58
2017-11-27T05:43:51.476Z,3.50
2017-11-27T05:46:19.101Z,3.65
2017-11-27T05:48:46.585Z,3.65
2017-11-27T05:51:14.048Z,3.60
2017-11-27T05:53:41.513Z,3.68
2017-11-27T05:56:08.989Z,3.65
2017-11-27T05:58:36.449Z,3.62
2017-11-27T06:01:03.909Z,3.65
2017-11-27T06:03:31.356Z,3.62
2017-11-27T06:05:58.807Z,3.59
2017-11-27T06:08:26.305Z,3.64
2017-11-27T06:10:53.777Z,3.67
2017-11-27T06:13:21.248Z,3.66
2017-11-27T06:15:48.724Z,3.65
2017-11-27T06:18:16.190Z,3.67
2017-11-27T06:20:43.645Z,3.68
2017-11-27T06:23:11.135Z,3.67
2017-11-27T06:25:38.585Z,3.71
2017-11-27T06:28:06.045Z,3.69
2017-11-27T06:30:33.516Z,3.70
2017-11-27T06:33:00.964Z,3.67
2017-11-27T06:35:28.428Z,3.68
2017-11-27T06:37:55.873Z,3.65
2017-11-27T06:40:23.328Z,3.61
2017-11-27T06:42:50.949Z,3.55
2017-11-27T06:45:18.461Z,3.54
2017-11-27T06:47:45.904Z,3.48
2017-11-27T06:50:13.455Z,3.48
2017-11-27T06:52:41.075Z,3.45
2017-11-27T06:55:08.564Z,3.54
2017-11-27T06:57:36.033Z,3.55
2017-11-27T07:00:03.526Z,3.60
2017-11-27T07:02:31.210Z,3.61
2017-11-27T07:04:58.665Z,3.66
2017-11-27T07:07:26.128Z,3.67
2017-11-27T07:09:53.612Z,3.68
2017-11-27T07:12:21.053Z,3.71
2017-11-27T07:14:48.508Z,3.79
2017-11-27T07:17:16.013Z,3.91
2017-11-27T07:19:43.454Z,3.91
2017-11-27T07:22:11.100Z,4.06
2017-11-27T07:24:38.553Z,4.07
2017-11-27T07:27:06.016Z,4.13
2017-11-27T07:29:33.490Z,4.15
2017-11-27T07:32:00.939Z,4.30
2017-11-27T07:34:28.413Z,4.21
2017-11-27T07:36:55.882Z,4.36
2017-11-27T07:39:28.870Z,4.24
2017-11-27T07:41:56.350Z,4.26
2017-11-27T07:44:23.812Z,4.24
2017-11-27T07:46:51.272Z,4.35
2017-11-27T07:49:18.766Z,4.42
2017-11-27T07:51:46.248Z,4.46
2017-11-27T07:54:13.701Z,4.47
2017-11-27T07:56:41.181Z,4.31
2017-11-27T07:59:08.629Z,4.35
2017-11-27T08:01:36.093Z,4.42
2017-11-27T08:04:03.586Z,4.50
2017-11-27T08:06:31.145Z,4.51
2017-11-27T08:08:58.590Z,4.49
2017-11-27T08:11:26.077Z,4.46
2017-11-27T08:13:53.557Z,4.63
2017-11-27T08:16:21.008Z,4.59
2017-11-27T08:18:48.730Z,4.66
2017-11-27T08:21:16.510Z,4.71
2017-11-27T08:23:44.012Z,4.72
2017-11-27T08:26:11.520Z,4.74
2017-11-27T08:28:38.989Z,4.81
2017-11-27T08:31:06.452Z,4.66
2017-11-27T08:33:33.918Z,4.69
2017-11-27T08:36:01.373Z,4.75
2017-11-27T08:38:28.850Z,4.82
2017-11-27T08:40:56.354Z,5.07
2017-11-27T08:43:23.800Z,4.96
2017-11-27T08:45:51.338Z,5.10
2017-11-27T08:48:18.901Z,5.07
2017-11-27T08:50:46.365Z,5.11
2017-11-27T08:53:13.848Z,5.07
2017-11-27T08:55:41.328Z,5.31
2017-11-27T08:58:08.777Z,5.27
2017-11-27T09:00:36.242Z,5.37
2017-11-27T09:03:03.728Z,5.38
2017-11-27T09:05:31.262Z,5.47
2017-11-27T09:07:58.694Z,5.47
2017-11-27T09:10:26.149Z,5.53
2017-11-27T09:12:53.692Z,5.52
2017-11-27T09:15:21.230Z,5.56
2017-11-27T09:17:48.712Z,5.45
2017-11-27T09:20:16.181Z,5.65
2017-11-27T09:22:43.810Z,5.64
2017-11-27T09:25:11.294Z,5.55
2017-11-27T09:27:38.740Z,5.49
2017-11-27T09:30:06.237Z,5.42
2017-11-27T09:32:33.712Z,5.35
2017-11-27T09:35:01.161Z,5.51
2017-11-27T09:37:28.641Z,5.70
2017-11-27T09:39:56.118Z,5.64
2017-11-27T09:42:23.588Z,5.52
2017-11-27T09:44:51.101Z,5.51
2017-11-27T09:47:18.573Z,5.46
2017-11-27T09:49:46.044Z,5.50
2017-11-27T09:52:13.519Z,5.51
2017-11-27T09:54:41.033Z,5.48
2017-11-27T09:57:08.514Z,5.52
2017-11-27T09:59:35.972Z,5.55
2017-11-27T10:02:03.426Z,5.46
2017-11-27T10:04:30.897Z,5.55
2017-11-27T10:06:58.509Z,5.53
2017-11-27T10:09:25.952Z,5.69
2017-11-27T10:11:53.429Z,5.66
2017-11-27T10:14:20.881Z,5.66
2017-11-27T10:16:48.346Z,5.78
2017-11-27T10:19:15.809Z,5.82
2017-11-27T10:21:43.249Z,5.94
2017-11-27T10:24:10.714Z,6.12
2017-11-27T10:26:39.767Z,6.18
2017-11-27T10:29:07.237Z,6.06
2017-11-27T10:31:34.697Z,6.04
2017-11-27T10:34:02.210Z,6.09
2017-11-27T10:36:29.993Z,6.11
2017-11-27T10:38:57.490Z,6.27
2017-11-27T10:41:24.953Z,6.30
2017-11-27T10:43:52.413Z,6.42
2017-11-27T10:46:20.349Z,6.34
2017-11-27T10:48:48.252Z,6.38
2017-11-27T10:51:15.903Z,6.54
2017-11-27T10:53:43.448Z,6.61
2017-11-27T10:56:10.911Z,6.55
2017-11-27T10:58:38.563Z,6.51
2017-11-27T11:01:06.089Z,6.66
2017-11-27T11:03:33.556Z,6.48
2017-11-27T11:06:01.014Z,6.49
2017-11-27T11:08:28.561Z,6.43
2017-11-27T11:10:56.125Z,6.43
2017-11-27T11:13:23.690Z,6.52
2017-11-27T11:15:51.173Z,6.55
2017-11-27T11:18:18.635Z,6.51
2017-11-27T11:20:46.140Z,6.46
2017-11-27T11:23:13.587Z,6.59
2017-11-27T11:25:41.039Z,6.67
2017-11-27T11:28:08.496Z,6.61
2017-11-27T11:30:36.012Z,6.69
2017-11-27T11:33:03.473Z,6.70
2017-11-27T11:35:30.972Z,6.56
2017-11-27T11:37:58.426Z,6.60
2017-11-27T11:40:26.573Z,6.69
2017-11-27T11:42:54.027Z,6.70
2017-11-27T11:45:21.490Z,6.54
2017-11-27T11:47:48.986Z,6.55
2017-11-27T11:50:16.506Z,6.51
2017-11-27T11:52:44.013Z,6.40
2017-11-27T11:55:14.320Z,6.33
2017-11-27T11:57:41.827Z,6.43
2017-11-27T12:00:09.294Z,6.37
2017-11-27T12:02:36.766Z,6.40
2017-11-27T12:05:04.241Z,6.51
2017-11-27T12:07:31.700Z,6.50
2017-11-27T12:09:59.165Z,6.45
2017-11-27T12:12:26.817Z,6.44
2017-11-27T12:14:54.304Z,6.48
2017-11-27T12:17:21.784Z,6.40
2017-11-27T12:19:49.322Z,6.33
2017-11-27T12:22:16.977Z,6.28
2017-11-27T12:24:55.981Z,6.35
2017-11-27T12:27:23.460Z,6.27
2017-11-27T12:29:50.915Z,6.33
2017-11-27T12:32:18.650Z,6.31
2017-11-27T12:34:46.112Z,6.29
2017-11-27T12:37:13.597Z,6.39
2017-11-27T12:39:41.081Z,6.40
2017-11-27T12:42:08.555Z,6.35
2017-11-27T12:44:36.945Z,6.50
2017-11-27T12:47:04.400Z,6.46
2017-11-27T12:49:31.836Z,6.41
2017-11-27T12:51:59.322Z,6.47
2017-11-27T12:54:26.980Z,6.43
2017-11-27T12:56:55.296Z,6.50
2017-11-27T12:59:27.725Z,6.53
2017-11-27T13:01:55.178Z,6.54
2017-11-27T13:04:22.660Z,6.63
2017-11-27T13:06:50.211Z,6.69
2017-11-27T13:09:17.799Z,6.82
2017-11-27T13:11:45.237Z,6.86
2017-11-27T13:14:12.696Z,6.89
2017-11-27T13:16:40.188Z,6.99
2017-11-27T13:19:07.639Z,6.94
2017-11-27T13:21:35.096Z,6.78
2017-11-27T13:24:02.548Z,6.82
2017-11-27T13:26:30.017Z,6.98
2017-11-27T13:28:57.591Z,6.96
2017-11-27T13:31:25.053Z,6.79
2017-11-27T13:33:52.508Z,6.62
2017-11-27T13:36:20.019Z,6.49
2017-11-27T13:38:47.574Z,6.55
2017-11-27T13:41:15.046Z,6.70
2017-11-27T13:43:42.528Z,6.86
2017-11-27T13:46:09.999Z,6.80
2017-11-27T13:48:37.455Z,6.85
2017-11-27T13:51:04.949Z,6.91
2017-11-27T13:53:32.401Z,6.80
2017-11-27T13:55:59.883Z,6.93
2017-11-27T13:58:27.325Z,6.99
2017-11-27T14:00:54.788Z,7.18
2017-11-27T14:03:22.276Z,7.22
2017-11-27T14:05:49.738Z,7.25
2017-11-27T14:08:17.279Z,7.39
2017-11-27T14:10:44.743Z,7.23
2017-11-27T14:13:12.257Z,7.16
2017-11-27T14:15:39.767Z,7.07
2017-11-27T14:18:07.233Z,7.08
2017-11-27T14:20:34.817Z,7.25
2017-11-27T14:23:02.411Z,7.35
2017-11-27T14:25:29.866Z,7.25
2017-11-27T14:27:57.428Z,7.12
2017-11-27T14:30:25.153Z,6.67
2017-11-27T14:32:52.614Z,6.59
2017-11-27T14:35:20.088Z,6.54
2017-11-27T14:37:47.528Z,6.76
2017-11-27T14:40:15.148Z,6.60
2017-11-27T14:42:42.706Z,6.55
2017-11-27T14:45:10.161Z,6.37
2017-11-27T14:47:37.627Z,6.08
2017-11-27T14:50:05.086Z,5.91
2017-11-27T14:52:32.854Z,5.71
2017-11-27T14:55:00.318Z,5.59
2017-11-27T14:57:27.812Z,5.46
2017-11-27T14:59:55.269Z,5.35
2017-11-27T15:02:22.766Z,5.27
2017-11-27T15:04:50.251Z,5.20
2017-11-27T15:07:17.762Z,5.15
2017-11-27T15:09:45.254Z,5.09
2017-11-27T15:12:12.759Z,4.94
2017-11-27T15:14:40.242Z,4.90
2017-11-27T15:17:07.736Z,4.71
2017-11-27T15:19:35.209Z,4.70
2017-11-27T15:22:02.709Z,4.66
2017-11-27T15:24:31.582Z,4.67
2017-11-27T15:26:59.065Z,4.58
2017-11-27T15:29:26.553Z,4.56
2017-11-27T15:31:54.061Z,4.57
2017-11-27T15:34:21.610Z,4.47
2017-11-27T15:36:51.308Z,4.47
2017-11-27T15:39:18.917Z,4.46
2017-11-27T15:41:46.426Z,4.52
2017-11-27T15:44:14.177Z,4.35
2017-11-27T15:46:41.686Z,4.45
2017-11-27T15:49:09.232Z,4.52
2017-11-27T15:51:36.739Z,4.61
2017-11-27T15:54:04.332Z,4.50
2017-11-27T15:56:31.803Z,4.48
2017-11-27T15:58:59.295Z,4.49
2017-11-27T16:01:26.805Z,4.51
2017-11-27T16:03:54.346Z,4.55
2017-11-27T16:06:21.881Z,4.54
2017-11-27T16:08:49.343Z,4.41
2017-11-27T16:11:16.855Z,4.32
2017-11-27T16:13:44.838Z,4.14
2017-11-27T16:16:12.313Z,4.00
2017-11-27T16:18:39.771Z,4.05
2017-11-27T16:21:07.262Z,4.10
2017-11-27T16:23:34.745Z,4.01
2017-11-27T16:26:02.831Z,3.91
2017-11-27T16:28:30.397Z,3.89
2017-11-27T16:30:57.917Z,3.86
2017-11-27T16:33:25.402Z,3.83
2017-11-27T16:35:52.920Z,3.76
2017-11-27T16:38:20.391Z,3.72
2017-11-27T16:40:47.857Z,3.60
2017-11-27T16:43:15.356Z,3.54
2017-11-27T16:45:42.829Z,3.53
2017-11-27T16:48:11.801Z,3.68
2017-11-27T16:50:39.329Z,3.76
2017-11-27T16:53:06.877Z,3.87
2017-11-27T16:55:34.357Z,3.99
2017-11-27T16:58:01.861Z,4.13
2017-11-27T17:00:30.634Z,4.10
2017-11-27T17:02:58.243Z,4.12
2017-11-27T17:05:25.718Z,4.02
2017-11-27T17:07:53.202Z,3.92
2017-11-27T17:10:20.702Z,3.96
2017-11-27T17:12:48.536Z,3.89
2017-11-27T17:15:16.237Z,3.79
2017-11-27T17:17:43.736Z,3.80
2017-11-27T17:20:11.228Z,3.84
2017-11-27T17:22:38.689Z,3.70
2017-11-27T17:25:06.157Z,3.68
2017-11-27T17:27:33.620Z,3.73
2017-11-27T17:30:02.109Z,3.81
2017-11-27T17:32:29.605Z,3.71
2017-11-27T17:34:57.137Z,3.53
2017-11-27T17:37:24.652Z,3.29
2017-11-27T17:39:52.151Z,3.10
2017-11-27T17:42:19.948Z,3.03
2017-11-27T17:44:47.505Z,3.09
2017-11-27T17:47:14.998Z,3.00
2017-11-27T17:49:42.504Z,3.09
2017-11-27T17:52:10.277Z,3.00
2017-11-27T17:54:37.749Z,2.84
2017-11-27T17:57:05.359Z,2.96
2017-11-27T17:59:33.020Z,3.02
2017-11-27T18:02:00.509Z,2.92
2017-11-27T18:04:27.988Z,2.85
2017-11-27T18:06:55.574Z,2.73
2017-11-27T18:09:23.380Z,2.56
2017-11-27T18:11:50.851Z,2.49
2017-11-27T18:14:18.504Z,2.48
2017-11-27T18:16:45.978Z,2.36
2017-11-27T18:19:13.444Z,2.30
2017-11-27T18:21:40.899Z,2.21
2017-11-27T18:24:08.390Z,2.20
2017-11-27T18:26:36.850Z,2.14
2017-11-27T18:29:04.367Z,2.08
2017-11-27T18:31:31.825Z,2.02
2017-11-27T18:33:59.329Z,1.96
2017-11-27T18:36:26.959Z,1.88
2017-11-27T18:38:54.730Z,1.81
2017-11-27T18:41:22.241Z,1.76
2017-11-27T18:43:49.696Z,1.75
2017-11-27T18:46:17.437Z,1.77
2017-11-27T18:48:45.009Z,1.71
2017-11-27T18:51:12.461Z,1.64
2017-11-27T18:53:39.932Z,1.57
2017-11-27T18:56:07.458Z,1.55
2017-11-27T18:58:36.164Z,1.58
2017-11-27T19:01:03.701Z,1.66
2017-11-27T19:03:31.799Z,1.68
2017-11-27T19:05:59.314Z,1.68
2017-11-27T19:08:26.886Z,1.64
2017-11-27T19:10:54.933Z,1.57
2017-11-27T19:13:22.507Z,1.57
2017-11-27T19:15:50.038Z,1.64
2017-11-27T19:18:17.513Z,1.59
2017-11-27T19:20:45.156Z,1.52
2017-11-27T19:23:12.890Z,1.53
2017-11-27T19:25:40.446Z,1.53
2017-11-27T19:28:08.019Z,1.65
2017-11-27T19:30:35.557Z,1.59
2017-11-27T19:33:03.247Z,1.54
2017-11-27T19:35:30.807Z,1.51
2017-11-27T19:37:58.310Z,1.54
2017-11-27T19:40:25.900Z,1.56
2017-11-27T19:42:53.468Z,1.64
2017-11-27T19:45:21.045Z,1.57
2017-11-27T19:47:48.574Z,1.56
2017-11-27T19:50:18.032Z,1.70
2017-11-27T19:52:45.565Z,1.78
2017-11-27T19:55:13.054Z,1.72
2017-11-27T19:57:40.609Z,1.63
2017-11-27T20:00:08.123Z,1.62
2017-11-27T20:02:36.922Z,1.59
2017-11-27T20:05:04.639Z,1.63
2017-11-27T20:07:32.284Z,1.61
2017-11-27T20:09:59.780Z,1.64
2017-11-27T20:12:27.448Z,1.50
2017-11-27T20:14:54.997Z,1.39
2017-11-27T20:17:22.496Z,1.53
2017-11-27T20:19:49.994Z,1.56
2017-11-27T20:22:19.187Z,1.71
2017-11-27T20:24:52.955Z,1.77
2017-11-27T20:27:20.514Z,1.87
2017-11-27T20:29:48.008Z,1.98
2017-11-27T20:32:15.724Z,2.01
2017-11-27T20:34:43.197Z,2.09
2017-11-27T20:37:10.753Z,2.16
2017-11-27T20:39:38.253Z,2.24
2017-11-27T20:42:05.744Z,2.19
2017-11-27T20:44:37.037Z,2.24
2017-11-27T20:47:04.639Z,2.16
2017-11-27T20:49:32.192Z,2.08
2017-11-27T20:51:59.762Z,2.07
2017-11-27T20:54:28.302Z,1.97
2017-11-27T20:56:55.970Z,1.82
2017-11-27T20:59:23.467Z,1.82
2017-11-27T21:01:51.194Z,1.70
2017-11-27T21:04:18.776Z,1.78
2017-11-27T21:06:46.390Z,1.79
2017-11-27T21:09:13.884Z,1.83
2017-11-27T21:11:41.380Z,1.81
2017-11-27T21:14:10.704Z,1.73
2017-11-27T21:16:38.248Z,1.68
2017-11-27T21:21:38.985Z,1.65
2017-11-27T21:24:06.529Z,1.68
2017-11-27T21:26:35.698Z,1.77
2017-11-27T21:29:03.166Z,1.78
2017-11-27T21:31:30.703Z,1.83
2017-11-27T21:33:58.237Z,1.89
2017-11-27T21:36:26.419Z,1.93
2017-11-27T21:38:53.914Z,2.01
2017-11-27T21:41:21.408Z,2.09
2017-11-27T21:43:48.926Z,2.11
2017-11-27T21:46:16.472Z,2.18
2017-11-27T21:48:43.952Z,2.25
2017-11-27T21:51:11.417Z,2.28
2017-11-27T21:53:38.908Z,2.39
2017-11-27T21:56:06.397Z,2.45
2017-11-27T21:58:36.784Z,2.52
2017-11-27T22:01:04.312Z,2.61
2017-11-27T22:03:31.781Z,2.47
2017-11-27T22:05:59.237Z,2.40
2017-11-27T22:08:26.735Z,2.38
2017-11-27T22:10:54.354Z,2.42
2017-11-27T22:13:21.818Z,2.34
2017-11-27T22:15:49.313Z,2.29
2017-11-27T22:18:16.821Z,2.26
2017-11-27T22:20:44.320Z,2.26
2017-11-27T22:23:11.797Z,2.30
2017-11-27T22:25:39.269Z,2.35
2017-11-27T22:28:06.797Z,2.33
2017-11-27T22:30:34.264Z,2.33
2017-11-27T22:33:01.795Z,2.35
2017-11-27T22:35:29.297Z,2.29
2017-11-27T22:37:56.834Z,2.36
2017-11-27T22:40:24.361Z,2.35
2017-11-27T22:42:51.802Z,2.43
2017-11-27T22:45:19.471Z,2.39
2017-11-27T22:47:46.940Z,2.34
2017-11-27T22:50:15.490Z,2.45
2017-11-27T22:52:43.013Z,2.61
2017-11-27T22:55:10.469Z,2.56
2017-11-27T22:57:38.005Z,2.53
2017-11-27T23:00:05.533Z,2.56
2017-11-27T23:02:34.515Z,2.55
2017-11-27T23:05:02.045Z,2.60
2017-11-27T23:07:29.610Z,2.56
2017-11-27T23:09:57.294Z,2.59
2017-11-27T23:12:24.843Z,2.56
2017-11-27T23:14:52.327Z,2.51
2017-11-27T23:17:19.880Z,2.51
2017-11-27T23:19:47.361Z,2.64
2017-11-27T23:22:14.825Z,2.57
2017-11-27T23:24:42.281Z,2.64
2017-11-27T23:27:09.757Z,2.64
2017-11-27T23:29:37.275Z,2.69
2017-11-27T23:32:04.780Z,2.65
2017-11-27T23:34:34.490Z,2.62
2017-11-27T23:37:02.040Z,2.65
2017-11-27T23:39:29.706Z,2.63
2017-11-27T23:41:57.308Z,2.60
2017-11-27T23:44:26.154Z,2.56
2017-11-27T23:46:53.712Z,2.53
2017-11-27T23:49:21.165Z,2.46
2017-11-27T23:51:48.737Z,2.41
2017-11-27T23:54:16.185Z,2.32
2017-11-27T23:56:43.672Z,2.26
2017-11-27T23:59:11.186Z,2.19
